Time;durP1;ratioP1;P1;durP2;ratioP2;P2;SDS_P1;SDS_P2;PMS_P1;PMS_P2;Temp;Humidity;BMP_temperature;BMP_pressure;BME280_temperature;BME280_humidity;BME280_pressure;Samples;Min_cycle;Max_cycle;Signal;HPM_P1;HPM_P2
2023/08/03 00:01:41;;;;;;;6.93;4.40;;;;;;;27.27;41.72;98163.88;5074439;28;20020;-77
2023/08/03 00:04:06;;;;;;;6.25;4.82;;;;;;;27.27;42.17;98158.50;5041279;28;20110;-76
2023/08/03 00:06:32;;;;;;;5.70;4.60;;;;;;;27.24;41.78;98164.34;5057322;28;20044;-75
2023/08/03 00:08:57;;;;;;;4.80;4.05;;;;;;;27.21;42.03;98167.50;5075663;28;20502;-72
2023/08/03 00:11:23;;;;;;;7.07;4.43;;;;;;;27.20;42.07;98169.38;5075522;28;20024;-75
2023/08/03 00:13:48;;;;;;;5.22;4.43;;;;;;;27.17;42.05;98167.19;5073723;28;20044;-72
2023/08/03 00:16:14;;;;;;;8.50;4.50;;;;;;;27.15;42.19;98163.94;5075633;28;20059;-72
2023/08/03 00:18:39;;;;;;;4.95;4.32;;;;;;;27.14;41.99;98167.66;5074402;28;20043;-72
2023/08/03 00:21:05;;;;;;;4.78;4.07;;;;;;;27.12;42.14;98160.91;5057693;28;20024;-74
2023/08/03 00:23:30;;;;;;;7.22;4.50;;;;;;;27.09;42.05;98162.22;5074273;28;20032;-74
2023/08/03 00:25:56;;;;;;;5.78;4.60;;;;;;;27.12;41.83;98167.09;5057646;28;20610;-72
2023/08/03 00:28:22;;;;;;;6.30;4.40;;;;;;;27.13;41.99;98167.91;5056912;28;20495;-72
2023/08/03 00:30:47;;;;;;;6.20;4.50;;;;;;;27.09;41.90;98162.22;5057077;28;20090;-72
2023/08/03 00:33:13;;;;;;;6.85;4.47;;;;;;;27.10;42.15;98169.16;5074398;28;20028;-72
2023/08/03 00:35:38;;;;;;;12.80;4.47;;;;;;;27.05;42.24;98161.03;5075263;28;20496;-74
2023/08/03 00:38:04;;;;;;;5.95;4.75;;;;;;;27.08;42.20;98168.59;5057537;28;20040;-74
2023/08/03 00:40:29;;;;;;;6.63;4.65;;;;;;;27.06;42.28;98168.03;5056834;28;20142;-74
2023/08/03 00:42:55;;;;;;;5.78;4.50;;;;;;;27.05;42.37;98172.56;5057239;28;20064;-74
2023/08/03 00:45:21;;;;;;;6.53;4.47;;;;;;;27.04;42.36;98175.47;5073934;28;20029;-74
2023/08/03 00:47:46;;;;;;;5.88;4.13;;;;;;;27.04;42.44;98175.47;5056878;28;20040;-73
2023/08/03 00:50:12;;;;;;;4.93;4.10;;;;;;;27.00;42.32;98169.78;5073835;28;20024;-73
2023/08/03 00:52:38;;;;;;;5.38;4.53;;;;;;;27.04;42.33;98172.78;5057161;28;20028;-74
2023/08/03 00:55:04;;;;;;;5.47;4.80;;;;;;;27.01;41.92;98166.06;5040369;28;20024;-73
2023/08/03 00:57:29;;;;;;;7.30;4.57;;;;;;;27.04;42.16;98170.97;5056965;28;20063;-73
2023/08/03 00:59:55;;;;;;;4.90;4.05;;;;;;;27.00;42.44;98163.63;5073604;28;20067;-73
2023/08/03 01:02:20;;;;;;;5.65;4.60;;;;;;;26.99;42.33;98162.78;5040464;28;20032;-74
2023/08/03 01:04:46;;;;;;;6.85;4.35;;;;;;;26.95;42.73;98164.34;5055729;28;20498;-73
2023/08/03 01:07:11;;;;;;;4.72;4.20;;;;;;;26.94;42.88;98173.41;5073079;28;20044;-73
2023/08/03 01:09:37;;;;;;;8.30;4.70;;;;;;;26.90;42.86;98166.91;5057082;28;20396;-75
2023/08/03 01:12:02;;;;;;;5.25;4.30;;;;;;;26.85;42.47;98162.28;5073385;28;20029;-74
2023/08/03 01:14:28;;;;;;;5.85;4.57;;;;;;;26.88;42.60;98163.66;5056705;28;20067;-75
2023/08/03 01:16:54;;;;;;;5.60;4.40;;;;;;;26.87;42.49;98164.72;5056514;28;20036;-75
2023/08/03 01:19:20;;;;;;;5.63;4.60;;;;;;;26.83;42.86;98158.19;5073203;28;20048;-75
2023/08/03 01:21:45;;;;;;;6.60;4.53;;;;;;;26.80;42.88;98164.03;5056706;28;20033;-75
2023/08/03 01:24:10;;;;;;;5.25;4.68;;;;;;;26.75;42.97;98156.69;5056938;28;20029;-75
2023/08/03 01:26:36;;;;;;;5.07;4.30;;;;;;;26.78;42.62;98158.91;5056390;28;20039;-75
2023/08/03 01:29:01;;;;;;;7.38;4.43;;;;;;;26.77;42.86;98165.28;5074083;28;20032;-74
2023/08/03 01:31:27;;;;;;;5.68;4.40;;;;;;;26.77;42.61;98164.50;5072892;28;20078;-74
2023/08/03 01:33:52;;;;;;;6.25;4.60;;;;;;;26.73;42.72;98161.47;5039881;28;20393;-74
2023/08/03 01:36:18;;;;;;;8.00;4.40;;;;;;;26.71;43.29;98163.59;5072862;28;20174;-74
2023/08/03 01:38:43;;;;;;;6.38;4.45;;;;;;;26.69;42.89;98168.34;5072886;28;20033;-74
2023/08/03 01:41:09;;;;;;;5.13;4.57;;;;;;;26.68;43.02;98172.91;5056069;28;20472;-73
2023/08/03 01:43:34;;;;;;;7.78;4.85;;;;;;;26.70;42.91;98180.69;5039723;28;20040;-74
2023/08/03 01:46:00;;;;;;;7.45;4.38;;;;;;;26.69;42.83;98176.38;5072330;28;20079;-74
2023/08/03 01:48:25;;;;;;;5.40;4.30;;;;;;;26.68;43.02;98182.81;5073830;28;20032;-74
2023/08/03 01:50:51;;;;;;;5.50;4.45;;;;;;;26.68;42.96;98175.56;5072647;28;20047;-74
2023/08/03 01:53:17;;;;;;;5.88;4.55;;;;;;;26.68;43.22;98183.59;5072601;28;20487;-73
2023/08/03 01:55:45;;;;;;;6.18;4.43;;;;;;;26.66;42.93;98191.06;5072571;28;20035;-74
2023/08/03 01:58:12;;;;;;;7.07;4.60;;;;;;;26.66;43.04;98187.56;5072241;28;20048;-73
2023/08/03 02:00:38;;;;;;;7.93;4.67;;;;;;;26.61;43.08;98187.41;5055693;28;20554;-74
2023/08/03 02:03:03;;;;;;;5.20;4.13;;;;;;;26.60;43.18;98191.13;5055816;28;20027;-73
2023/08/03 02:05:29;;;;;;;6.15;4.72;;;;;;;26.59;43.59;98193.00;5071921;28;20048;-74
2023/08/03 02:07:55;;;;;;;5.03;4.32;;;;;;;26.57;43.64;98189.75;5073810;28;20032;-74
2023/08/03 02:10:21;;;;;;;6.43;4.32;;;;;;;26.57;43.16;98188.94;5073422;28;20031;-74
2023/08/03 02:12:47;;;;;;;6.15;4.65;;;;;;;26.59;43.45;98192.19;5055694;28;20070;-73
2023/08/03 02:15:13;;;;;;;6.32;4.22;;;;;;;26.53;43.66;98189.41;5071578;28;20040;-74
2023/08/03 02:17:39;;;;;;;5.07;4.25;;;;;;;26.53;43.46;98202.81;5038735;28;20472;-73
2023/08/03 02:20:05;;;;;;;5.45;4.65;;;;;;;26.56;43.43;98192.66;5071996;28;20029;-73
2023/08/03 02:22:31;;;;;;;6.90;4.45;;;;;;;26.52;43.56;98192.34;5073361;28;20124;-73
2023/08/03 02:24:56;;;;;;;5.82;4.03;;;;;;;26.50;43.60;98197.91;5055440;28;20492;-72
2023/08/03 02:27:22;;;;;;;6.10;4.30;;;;;;;26.45;43.69;98188.94;5071958;28;20041;-74
2023/08/03 02:29:47;;;;;;;6.78;4.50;;;;;;;26.48;43.85;98194.63;5072333;28;20048;-74
2023/08/03 02:32:13;;;;;;;6.03;4.68;;;;;;;26.45;44.07;98192.44;5038833;28;20025;-74
2023/08/03 02:34:38;;;;;;;5.10;4.45;;;;;;;26.47;43.79;98198.38;5038940;28;20495;-74
2023/08/03 02:37:04;;;;;;;6.40;4.20;;;;;;;26.44;43.70;98196.16;5039040;28;20040;-73
2023/08/03 02:39:29;;;;;;;6.72;4.47;;;;;;;26.40;44.06;98192.31;5071853;28;20569;-74
2023/08/03 02:41:55;;;;;;;5.95;4.50;;;;;;;26.39;44.19;98204.06;5055203;28;20025;-73
2023/08/03 02:44:21;;;;;;;6.88;4.70;;;;;;;26.38;44.27;98205.13;5071678;28;20072;-73
2023/08/03 02:46:48;;;;;;;9.23;4.38;;;;;;;26.38;44.49;98201.63;5054503;28;20044;-73
2023/08/03 02:49:13;;;;;;;5.03;3.85;;;;;;;26.35;44.12;98200.25;5055087;28;20028;-74
2023/08/03 02:51:39;;;;;;;5.13;4.40;;;;;;;26.34;44.55;98206.63;5071587;28;20505;-72
2023/08/03 02:54:04;;;;;;;4.82;4.18;;;;;;;26.32;44.20;98212.22;5072575;28;20033;-70
2023/08/03 02:56:29;;;;;;;7.43;4.10;;;;;;;26.26;44.73;98209.66;5073130;28;20040;-74
2023/08/03 02:58:55;;;;;;;4.88;4.20;;;;;;;26.28;44.50;98218.25;5054987;28;20044;-75
2023/08/03 03:01:21;;;;;;;6.25;4.50;;;;;;;26.26;44.72;98218.47;5071644;28;20031;-78
2023/08/03 03:03:47;;;;;;;14.15;4.65;;;;;;;26.25;44.74;98221.38;5072652;28;20036;-73
2023/08/03 03:06:12;;;;;;;5.95;4.38;;;;;;;26.19;44.77;98223.16;5070676;28;20083;-75
2023/08/03 03:08:38;;;;;;;7.53;4.50;;;;;;;26.21;44.72;98223.72;5054594;28;20033;-74
2023/08/03 03:11:03;;;;;;;5.80;4.55;;;;;;;26.20;44.87;98231.97;5054142;28;20135;-72
2023/08/03 03:13:29;;;;;;;6.10;4.30;;;;;;;26.18;45.17;98232.19;5054686;28;20035;-72
2023/08/03 03:15:54;;;;;;;5.57;4.55;;;;;;;26.17;45.12;98235.91;5072555;28;20067;-73
2023/08/03 03:18:20;;;;;;;6.43;4.45;;;;;;;26.20;45.29;98235.44;5054616;28;20454;-72
2023/08/03 03:20:45;;;;;;;6.40;4.78;;;;;;;26.23;44.99;98234.19;5072193;28;20078;-72
2023/08/03 03:23:10;;;;;;;6.05;4.57;;;;;;;26.35;44.72;98243.03;5037731;28;20024;-73
2023/08/03 03:25:36;;;;;;;7.13;4.43;;;;;;;26.39;44.85;98230.00;5037893;28;20044;-74
2023/08/03 03:28:04;;;;;;;7.38;4.50;;;;;;;26.43;44.58;98236.53;5053514;28;20503;-74
2023/08/03 03:30:33;;;;;;;6.25;4.15;;;;;;;26.37;44.84;98224.88;5038637;28;20037;-74
2023/08/03 03:32:59;;;;;;;7.63;4.82;;;;;;;26.43;44.81;98234.66;5037533;28;20039;-74
2023/08/03 03:35:24;;;;;;;5.78;4.72;;;;;;;26.45;44.63;98234.44;5037548;28;20036;-74
2023/08/03 03:37:50;;;;;;;5.63;4.38;;;;;;;26.49;44.67;98232.94;5072134;28;20025;-74
2023/08/03 03:40:15;;;;;;;5.50;4.60;;;;;;;26.87;43.60;98234.34;5071114;28;20395;-73
2023/08/03 03:42:41;;;;;;;6.18;4.15;;;;;;;27.33;42.80;98229.94;5070336;28;20037;-73
2023/08/03 03:45:07;;;;;;;9.07;4.80;;;;;;;27.79;41.92;98235.34;5071935;28;20480;-73
2023/08/03 03:47:32;;;;;;;7.05;4.30;;;;;;;28.26;40.99;98235.09;5070791;28;20017;-73
2023/08/03 03:49:58;;;;;;;5.95;4.50;;;;;;;28.69;39.93;98230.09;5053728;28;20114;-73
2023/08/03 03:52:23;;;;;;;5.88;4.30;;;;;;;29.16;38.94;98243.06;5054013;28;20067;-74
2023/08/03 03:54:49;;;;;;;5.47;4.25;;;;;;;29.65;38.15;98241.47;5072223;28;20024;-74
2023/08/03 03:57:14;;;;;;;7.28;4.43;;;;;;;30.12;37.33;98248.94;5072173;28;20028;-76
2023/08/03 03:59:40;;;;;;;5.20;4.10;;;;;;;30.55;36.11;98241.72;5070536;28;20112;-76
2023/08/03 04:02:05;;;;;;;4.78;3.80;;;;;;;30.97;35.34;98242.81;5071725;28;20020;-76
2023/08/03 04:04:31;;;;;;;6.97;4.05;;;;;;;31.42;34.63;98252.16;5069911;28;20056;-76
2023/08/03 04:06:56;;;;;;;10.80;4.13;;;;;;;31.81;33.69;98235.53;5054215;28;20044;-76
2023/08/03 04:09:22;;;;;;;4.82;3.85;;;;;;;32.31;33.53;98243.13;5053887;28;20091;-74
2023/08/03 04:11:47;;;;;;;4.07;3.67;;;;;;;32.76;32.34;98252.28;5053998;28;20025;-75
2023/08/03 04:14:13;;;;;;;9.80;4.20;;;;;;;33.15;31.60;98249.72;5054070;28;20037;-75
2023/08/03 04:16:38;;;;;;;7.40;3.60;;;;;;;33.60;31.17;98251.69;5070588;28;20035;-75
2023/08/03 04:19:04;;;;;;;4.70;3.63;;;;;;;34.07;30.53;98255.72;5037487;28;20484;-75
2023/08/03 04:21:29;;;;;;;8.90;4.00;;;;;;;34.46;29.84;98260.28;5071545;28;20146;-74
2023/08/03 04:23:55;;;;;;;8.30;3.88;;;;;;;34.89;29.40;98248.78;5069951;28;20476;-75
2023/08/03 04:26:20;;;;;;;4.90;3.55;;;;;;;35.25;28.77;98256.47;5037057;28;20040;-75
2023/08/03 04:28:46;;;;;;;5.47;3.83;;;;;;;35.68;27.97;98251.03;5070326;28;20085;-76
2023/08/03 04:31:11;;;;;;;4.72;3.50;;;;;;;36.11;27.33;98253.63;5053904;28;20028;-76
2023/08/03 04:33:37;;;;;;;8.50;3.88;;;;;;;36.67;27.45;98261.94;5053914;28;20037;-73
2023/08/03 04:36:03;;;;;;;5.68;3.53;;;;;;;37.09;26.37;98257.34;5071612;28;20028;-73
2023/08/03 04:38:28;;;;;;;4.97;3.50;;;;;;;37.55;25.76;98258.31;5052891;28;20032;-73
2023/08/03 04:40:54;;;;;;;5.18;3.60;;;;;;;38.06;25.39;98261.78;5077726;28;20473;-74
2023/08/03 04:43:19;;;;;;;4.57;3.80;;;;;;;38.44;25.01;98259.47;5077700;28;20032;-75
2023/08/03 04:45:45;;;;;;;6.22;3.45;;;;;;;38.94;24.51;98265.81;5077441;28;20051;-74
2023/08/03 04:48:10;;;;;;;5.78;3.42;;;;;;;39.36;23.89;98267.06;5093581;28;20047;-74
2023/08/03 04:50:35;;;;;;;9.43;4.05;;;;;;;39.83;23.44;98266.47;5087291;28;20472;-74
2023/08/03 04:53:01;;;;;;;11.60;3.53;;;;;;;40.16;22.77;98272.25;5074935;28;20028;-74
2023/08/03 04:55:26;;;;;;;6.38;3.58;;;;;;;40.53;22.62;98260.13;5056723;28;20491;-75
2023/08/03 04:57:52;;;;;;;8.93;3.10;;;;;;;40.97;22.47;98266.22;5057112;28;20029;-75
2023/08/03 05:00:17;;;;;;;4.45;3.45;;;;;;;41.40;22.00;98271.47;5073264;28;20024;-75
2023/08/03 05:02:43;;;;;;;6.95;3.30;;;;;;;41.81;20.98;98277.31;5040429;28;20410;-74
2023/08/03 05:05:08;;;;;;;7.95;3.35;;;;;;;42.19;20.87;98283.75;5072422;28;20569;-74
2023/08/03 05:07:34;;;;;;;3.53;3.03;;;;;;;42.56;20.64;98272.88;5073338;28;20032;-74
2023/08/03 05:09:59;;;;;;;5.50;3.20;;;;;;;42.84;20.21;98282.09;5074370;28;20024;-75
2023/08/03 05:12:25;;;;;;;7.40;3.10;;;;;;;43.14;20.02;98283.81;5074425;28;20024;-73
2023/08/03 05:14:50;;;;;;;7.73;2.93;;;;;;;43.51;19.23;98283.78;5074378;28;20514;-74
2023/08/03 05:17:16;;;;;;;6.30;2.93;;;;;;;43.79;18.74;98283.03;5039793;28;20036;-74
2023/08/03 05:19:41;;;;;;;7.30;3.17;;;;;;;44.12;18.79;98291.00;5056643;28;20440;-75
2023/08/03 05:22:07;;;;;;;5.07;3.00;;;;;;;44.39;18.24;98291.34;5039645;28;20093;-75
2023/08/03 05:24:32;;;;;;;5.53;3.00;;;;;;;44.68;19.17;98298.41;5074617;28;20024;-76
2023/08/03 05:26:58;;;;;;;5.83;2.97;;;;;;;44.95;18.05;98293.16;5074559;28;20406;-76
2023/08/03 05:29:23;;;;;;;6.67;2.90;;;;;;;45.09;17.97;98292.72;5074211;28;20032;-76
2023/08/03 05:31:49;;;;;;;7.93;3.00;;;;;;;45.27;17.66;98304.16;5073063;28;20047;-75
2023/08/03 05:34:15;;;;;;;4.10;2.90;;;;;;;45.46;17.38;98298.69;5056316;28;20032;-74
2023/08/03 05:36:40;;;;;;;13.85;3.20;;;;;;;45.64;16.41;98303.78;5056308;28;20032;-75
2023/08/03 05:39:07;;;;;;;12.93;3.60;;;;;;;45.85;16.12;98303.47;5072525;28;20105;-75
2023/08/03 05:41:33;;;;;;;12.30;3.10;;;;;;;45.82;16.00;98298.69;5072158;28;20098;-74
2023/08/03 05:43:58;;;;;;;10.60;3.10;;;;;;;45.92;15.69;98308.34;5074078;28;20446;-74
2023/08/03 05:46:24;;;;;;;23.83;3.30;;;;;;;46.07;15.57;98293.66;5056173;28;20039;-74
2023/08/03 05:48:51;;;;;;;11.57;3.00;;;;;;;46.03;14.87;98293.56;5056217;28;20032;-75
2023/08/03 05:51:26;;;;;;;11.27;3.10;;;;;;;46.07;15.57;98293.66;5054636;28;20052;-75
2023/08/03 05:53:52;;;;;;;13.23;3.03;;;;;;;46.13;15.27;98297.72;5073016;28;20020;-75
2023/08/03 05:56:18;;;;;;;9.98;3.25;;;;;;;46.30;15.63;98295.69;5075346;28;20052;-76
2023/08/03 05:58:44;;;;;;;6.00;2.90;;;;;;;46.36;15.96;98308.00;5039358;28;20490;-76
2023/08/03 06:01:10;;;;;;;5.40;2.60;;;;;;;46.47;16.71;98305.44;5055323;28;20024;-75
2023/08/03 06:03:36;;;;;;;;;;;;;;;46.35;16.08;98300.88;5072871;28;20036;-76
2023/08/03 06:06:03;;;;;;;;;;;;;;;46.19;15.03;98301.00;5073159;28;19926;-75
2023/08/03 06:08:28;;;;;;;6.53;3.00;;;;;;;46.47;15.45;98305.44;5072683;28;20367;-76
2023/08/03 06:11:00;;;;;;;7.43;3.00;;;;;;;46.49;15.41;98301.13;5059376;28;20024;-76
2023/08/03 06:13:27;;;;;;;7.47;3.05;;;;;;;46.52;15.01;98302.38;5076148;28;20453;-78
2023/08/03 06:15:53;;;;;;;14.40;3.20;;;;;;;46.65;14.71;98303.78;5075706;28;20028;-76
2023/08/03 06:18:19;;;;;;;13.77;3.50;;;;;;;46.58;14.66;98292.66;5055326;28;20063;-76
2023/08/03 06:20:45;;;;;;;;;;;;;;;46.27;14.75;98296.41;5072278;28;20036;-75
2023/08/03 06:23:23;;;;;;;;;;;;;;;46.09;15.27;98305.13;5072635;28;19919;-77
2023/08/03 06:25:50;;;;;;;13.88;3.65;;;;;;;46.06;14.99;98308.59;5072178;28;19916;-76
2023/08/03 06:28:19;;;;;;;7.53;3.13;;;;;;;45.91;14.70;98306.72;5072019;28;20124;-74
2023/08/03 06:30:46;;;;;;;5.43;2.90;;;;;;;45.76;15.10;98300.91;5055151;28;20074;-76
2023/08/03 06:33:13;;;;;;;10.65;3.10;;;;;;;45.76;15.21;98300.09;5071723;28;20399;-74
2023/08/03 06:35:43;;;;;;;4.85;2.90;;;;;;;45.65;15.59;98310.91;5055148;28;20030;-81
2023/08/03 06:38:10;;;;;;;5.68;3.10;;;;;;;45.63;15.74;98308.50;5055201;28;20032;-78
2023/08/03 06:40:36;;;;;;;6.63;3.25;;;;;;;45.56;15.27;98307.56;5071692;28;20458;-75
2023/08/03 06:43:02;;;;;;;4.80;2.97;;;;;;;45.68;15.68;98304.69;5071770;28;20058;-75
2023/08/03 06:45:30;;;;;;;8.63;2.83;;;;;;;45.73;15.10;98306.34;5054947;28;20028;-78
2023/08/03 06:47:57;;;;;;;9.80;2.92;;;;;;;45.78;15.23;98308.84;5079785;28;20052;-77
2023/08/03 06:50:22;;;;;;;6.05;3.40;;;;;;;45.64;15.99;98309.31;5072703;28;20036;-79
2023/08/03 06:52:48;;;;;;;15.63;3.50;;;;;;;45.43;15.68;98307.69;5075981;28;20032;-77
2023/08/03 06:55:13;;;;;;;8.60;3.10;;;;;;;45.43;16.16;98304.94;5073945;28;20181;-75
2023/08/03 06:57:39;;;;;;;11.13;3.20;;;;;;;45.20;15.88;98302.03;5090462;28;20081;-76
2023/08/03 07:00:05;;;;;;;5.23;3.23;;;;;;;45.29;15.83;98301.81;5058091;28;20024;-76
2023/08/03 07:02:31;;;;;;;5.80;2.97;;;;;;;45.27;16.36;98304.16;5074425;28;20036;-76
2023/08/03 07:04:56;;;;;;;5.33;2.90;;;;;;;45.01;16.36;98300.03;5077938;28;20048;-76
2023/08/03 07:07:22;;;;;;;7.80;3.00;;;;;;;45.12;16.38;98303.84;5054461;28;20041;-76
2023/08/03 07:09:48;;;;;;;7.80;3.20;;;;;;;45.09;16.67;98303.72;5054872;28;20085;-77
2023/08/03 07:12:14;;;;;;;5.67;3.20;;;;;;;45.11;16.63;98302.22;5071802;28;20032;-76
2023/08/03 07:14:40;;;;;;;4.28;3.08;;;;;;;45.10;16.17;98295.09;5054590;28;20480;-75
2023/08/03 07:17:06;;;;;;;6.17;3.00;;;;;;;45.07;16.63;98308.81;5072979;28;20067;-76
2023/08/03 07:19:32;;;;;;;6.95;2.80;;;;;;;45.20;16.39;98296.53;5086116;28;20498;-76
2023/08/03 07:21:57;;;;;;;6.15;2.80;;;;;;;45.18;15.65;98307.09;5057618;28;20395;-76
2023/08/03 07:24:23;;;;;;;7.90;2.80;;;;;;;45.10;16.30;98308.09;5074700;28;20039;-76
2023/08/03 07:26:49;;;;;;;4.57;2.97;;;;;;;44.90;16.09;98307.19;5092684;28;20027;-77
2023/08/03 07:29:15;;;;;;;8.03;2.83;;;;;;;44.74;16.23;98301.69;5074633;28;20043;-76
2023/08/03 07:31:40;;;;;;;7.10;2.90;;;;;;;44.77;16.29;98304.56;5091457;28;20305;-77
2023/08/03 07:34:06;;;;;;;14.50;3.10;;;;;;;44.68;17.11;98301.19;5091576;28;20032;-76
2023/08/03 07:36:31;;;;;;;16.10;3.13;;;;;;;44.96;16.47;98295.56;5057850;28;20193;-78
2023/08/03 07:38:57;;;;;;;11.33;2.60;;;;;;;45.21;16.96;98297.31;5074785;28;20085;-75
2023/08/03 07:41:22;;;;;;;8.10;2.70;;;;;;;45.48;16.47;98293.66;5091303;28;20046;-80
2023/08/03 07:43:49;;;;;;;6.10;2.80;;;;;;;45.71;16.73;98303.16;5075086;28;20039;-79
2023/08/03 07:46:15;;;;;;;7.15;2.63;;;;;;;45.93;15.99;98301.63;5091091;28;20036;-77
2023/08/03 07:48:40;;;;;;;6.20;2.60;;;;;;;46.09;16.36;98301.56;5056847;28;20039;-77
2023/08/03 07:51:13;;;;;;;4.47;2.67;;;;;;;46.22;15.75;98294.75;5055918;28;20494;-71
2023/08/03 07:53:39;;;;;;;5.85;2.80;;;;;;;46.33;16.19;98303.22;5082851;28;20028;-74
2023/08/03 07:56:16;;;;;;;4.20;2.50;;;;;;;46.43;15.88;98304.56;5070017;28;20427;-74
2023/08/03 07:58:42;;;;;;;8.70;2.75;;;;;;;46.50;15.87;98299.97;5072099;28;20033;-75
2023/08/03 08:01:10;;;;;;;5.40;2.57;;;;;;;46.52;14.93;98297.63;5053207;28;20045;-77
2023/08/03 08:03:37;;;;;;;8.98;2.40;;;;;;;46.53;15.00;98288.22;5054719;28;20029;-74
2023/08/03 08:06:06;;;;;;;6.47;2.47;;;;;;;46.49;14.90;98295.63;5064998;28;20048;-78
2023/08/03 08:08:32;;;;;;;6.18;2.60;;;;;;;46.48;15.33;98295.97;5069251;28;20032;-76
2023/08/03 08:10:58;;;;;;;5.43;2.35;;;;;;;46.47;15.62;98292.44;5053046;28;20438;-80
2023/08/03 08:13:23;;;;;;;6.93;2.53;;;;;;;46.43;15.66;98294.31;5036943;28;20033;-77
2023/08/03 08:15:49;;;;;;;2.83;2.33;;;;;;;46.40;15.75;98292.28;5056014;28;20036;-76
2023/08/03 08:18:14;;;;;;;5.30;2.73;;;;;;;46.36;15.38;98291.47;5056859;28;20526;-73
2023/08/03 08:20:40;;;;;;;3.80;2.37;;;;;;;46.33;15.75;98289.44;5089809;28;20517;-75
2023/08/03 08:23:05;;;;;;;6.07;2.77;;;;;;;46.32;15.94;98296.09;5040282;28;20041;-75
2023/08/03 08:25:33;;;;;;;4.30;2.50;;;;;;;46.27;15.91;98301.94;5056145;28;20040;-75
2023/08/03 08:27:59;;;;;;;5.30;2.85;;;;;;;46.20;15.93;98288.81;5057563;28;20021;-77
2023/08/03 08:30:24;;;;;;;4.13;2.50;;;;;;;46.10;15.87;98290.19;5074499;28;20040;-78
2023/08/03 08:32:50;;;;;;;8.27;2.40;;;;;;;46.00;15.84;98290.75;5074047;28;20047;-76
2023/08/03 08:35:15;;;;;;;5.20;2.80;;;;;;;45.87;15.65;98285.38;5073385;28;20543;-76
2023/08/03 08:37:41;;;;;;;10.73;2.80;;;;;;;45.79;16.35;98291.94;5073576;28;20025;-77
2023/08/03 08:40:11;;;;;;;7.90;2.50;;;;;;;45.81;16.30;98286.84;5072945;28;20036;-73
2023/08/03 08:42:37;;;;;;;5.22;2.60;;;;;;;45.75;15.82;98281.97;5076074;28;20110;-78
2023/08/03 08:45:04;;;;;;;6.23;2.80;;;;;;;45.70;16.24;98291.31;5080403;28;20476;-74
2023/08/03 08:47:30;;;;;;;7.10;2.63;;;;;;;45.61;16.29;98285.22;5074824;28;20515;-76
2023/08/03 08:49:55;;;;;;;5.03;2.60;;;;;;;45.50;16.13;98285.03;5044668;28;20051;-76
2023/08/03 08:52:21;;;;;;;3.27;2.40;;;;;;;45.46;16.06;98279.41;5080531;28;20037;-76
2023/08/03 08:54:46;;;;;;;4.97;2.60;;;;;;;45.40;16.38;98283.59;5079278;28;20400;-76
2023/08/03 08:57:12;;;;;;;7.63;2.80;;;;;;;45.33;16.57;98277.94;5089802;28;20115;-77
2023/08/03 08:59:44;;;;;;;4.90;2.70;;;;;;;45.31;16.35;98280.22;5073184;28;20040;-76
2023/08/03 09:02:10;;;;;;;3.65;2.72;;;;;;;45.23;16.85;98279.28;5076243;28;20116;-78
2023/08/03 09:04:35;;;;;;;7.68;2.75;;;;;;;45.16;16.58;98279.13;5070350;28;20074;-78
2023/08/03 09:07:01;;;;;;;6.80;2.93;;;;;;;45.10;17.11;98275.84;5059036;28;20487;-82
2023/08/03 09:09:36;;;;;;;5.97;2.87;;;;;;;44.97;17.17;98277.09;5091176;28;20043;-77
2023/08/03 09:12:02;;;;;;;5.55;2.80;;;;;;;44.88;17.17;98274.50;5056539;28;20509;-78
2023/08/03 09:14:27;;;;;;;3.50;2.67;;;;;;;44.86;17.24;98278.78;5061300;28;20048;-77
2023/08/03 09:16:53;;;;;;;5.93;2.50;;;;;;;44.79;17.59;98271.97;5059347;28;20036;-76
2023/08/03 09:19:37;;;;;;;4.63;2.80;;;;;;;44.67;17.54;98285.81;5088623;28;20051;-78
2023/08/03 09:22:03;;;;;;;5.03;2.95;;;;;;;44.49;17.70;98266.09;5089739;28;20028;-76
2023/08/03 09:24:28;;;;;;;6.13;2.60;;;;;;;44.39;17.86;98275.66;5095191;28;20028;-78
2023/08/03 09:26:55;;;;;;;6.27;3.30;;;;;;;44.29;17.97;98270.66;5058268;28;20032;-77
2023/08/03 09:29:20;;;;;;;8.40;3.22;;;;;;;44.14;18.10;98260.41;5076737;28;20123;-75
2023/08/03 09:31:46;;;;;;;7.47;3.40;;;;;;;44.05;18.00;98266.09;5060302;28;20035;-77
2023/08/03 09:34:11;;;;;;;5.30;2.90;;;;;;;43.96;18.12;98268.97;5076213;28;20048;-77
2023/08/03 09:36:38;;;;;;;6.23;3.20;;;;;;;43.82;18.25;98261.13;5060008;28;20039;-77
2023/08/03 09:39:13;;;;;;;3.92;2.80;;;;;;;43.69;18.65;98254.84;5093590;28;20062;-78
2023/08/03 09:41:39;;;;;;;6.18;3.20;;;;;;;43.52;18.53;98260.63;5093048;28;20487;-78
2023/08/03 09:44:07;;;;;;;4.93;2.90;;;;;;;43.45;18.45;98250.25;5076420;28;20062;-78
2023/08/03 09:46:33;;;;;;;7.50;3.20;;;;;;;43.31;19.08;98258.81;5059631;28;20036;-78
2023/08/03 09:48:59;;;;;;;5.97;3.10;;;;;;;43.29;18.85;98247.41;5076048;28;20055;-78
2023/08/03 09:51:28;;;;;;;5.00;3.13;;;;;;;43.14;19.09;98251.66;5093938;28;20055;-77
2023/08/03 09:53:58;;;;;;;5.97;2.95;;;;;;;43.04;19.16;98246.63;5092808;28;20417;-77
2023/08/03 09:56:24;;;;;;;4.50;3.08;;;;;;;42.91;19.17;98239.53;5093078;28;20456;-82
2023/08/03 09:58:52;;;;;;;5.95;3.35;;;;;;;42.73;19.71;98249.94;5076368;28;20536;-76
2023/08/03 10:01:21;;;;;;;8.35;3.53;;;;;;;42.62;19.62;98246.84;5075751;28;20028;-77
2023/08/03 10:03:46;;;;;;;5.50;3.40;;;;;;;42.50;19.74;98250.34;5075772;28;20032;-77
2023/08/03 10:06:15;;;;;;;4.27;3.33;;;;;;;42.41;19.87;98252.38;5075337;28;20054;-77
2023/08/03 10:08:47;;;;;;;4.10;3.22;;;;;;;42.30;19.91;98249.28;5075598;28;20050;-81
2023/08/03 10:11:13;;;;;;;5.07;3.33;;;;;;;42.22;20.01;98245.50;5092821;28;20376;-77
2023/08/03 10:13:46;;;;;;;5.20;3.10;;;;;;;42.12;20.27;98237.69;5092619;28;20401;-79
2023/08/03 10:16:12;;;;;;;7.93;3.30;;;;;;;42.03;20.56;98242.44;5093825;28;20028;-78
2023/08/03 10:18:37;;;;;;;7.00;3.43;;;;;;;41.99;20.83;98236.03;5058982;28;20513;-78
2023/08/03 10:21:03;;;;;;;8.07;3.77;;;;;;;41.87;20.78;98225.84;5075363;28;20024;-77
2023/08/03 10:23:28;;;;;;;6.30;3.78;;;;;;;41.91;20.53;98226.78;5092498;28;20035;-78
2023/08/03 10:26:00;;;;;;;5.68;3.78;;;;;;;41.90;20.47;98230.66;5074868;28;20040;-77
2023/08/03 10:28:26;;;;;;;4.50;3.58;;;;;;;41.78;20.28;98225.13;5092384;28;20078;-78
2023/08/03 10:31:03;;;;;;;6.15;3.97;;;;;;;41.68;20.21;98226.31;5074330;28;20036;-78
2023/08/03 10:33:58;;;;;;;7.85;3.60;;;;;;;41.41;22.52;98221.03;5072263;28;20502;-80
2023/08/03 10:36:26;;;;;;;14.45;3.72;;;;;;;41.25;22.71;98224.69;5064225;28;20036;-78
2023/08/03 10:38:54;;;;;;;10.38;3.70;;;;;;;41.15;22.70;98221.22;5072790;28;20030;-78
2023/08/03 10:41:24;;;;;;;5.47;3.30;;;;;;;41.06;22.93;98225.94;5058928;28;20396;-74
2023/08/03 10:44:05;;;;;;;13.73;4.00;;;;;;;40.94;23.35;98214.91;5041611;28;20035;-76
2023/08/03 10:46:40;;;;;;;49.30;6.40;;;;;;;40.85;23.44;98217.69;5076809;28;20085;-79
2023/08/03 10:49:22;;;;;;;50.45;5.65;;;;;;;40.75;23.75;98221.56;5071623;28;20056;-81
2023/08/03 10:51:48;;;;;;;52.53;6.00;;;;;;;40.62;23.75;98209.72;5089386;28;20024;-77
2023/08/03 10:54:14;;;;;;;69.50;6.25;;;;;;;40.48;24.05;98209.13;5093081;28;20032;-76
2023/08/03 10:56:39;;;;;;;82.37;6.77;;;;;;;40.33;24.00;98205.00;5074603;28;20075;-77
2023/08/03 10:59:05;;;;;;;34.10;5.30;;;;;;;40.27;24.44;98206.31;5091798;28;20024;-80
2023/08/03 11:01:30;;;;;;;47.47;6.40;;;;;;;40.14;24.77;98194.44;5062275;28;20119;-72
2023/08/03 11:03:58;;;;;;;45.47;5.97;;;;;;;40.09;24.75;98194.59;5078892;28;20048;-76
2023/08/03 11:06:24;;;;;;;34.53;5.40;;;;;;;39.96;24.40;98191.72;5084218;28;20052;-85
2023/08/03 11:08:49;;;;;;;33.30;5.57;;;;;;;39.90;24.79;98193.03;5091091;28;20107;-74
2023/08/03 11:11:21;;;;;;;31.55;5.05;;;;;;;39.82;24.55;98202.00;5073628;28;20411;-74
2023/08/03 11:13:47;;;;;;;35.90;5.47;;;;;;;39.73;25.01;98191.13;5106910;28;20024;-74
2023/08/03 11:16:16;;;;;;;25.88;4.93;;;;;;;39.62;24.62;98181.66;5090336;28;20039;-74
2023/08/03 11:18:45;;;;;;;25.15;5.20;;;;;;;39.58;24.82;98186.97;5090490;28;20028;-75
2023/08/03 11:21:11;;;;;;;18.05;4.63;;;;;;;39.54;24.71;98183.25;5090691;28;20406;-74
2023/08/03 11:23:37;;;;;;;18.83;5.00;;;;;;;39.48;24.84;98178.25;5074049;28;20249;-75
2023/08/03 11:26:06;;;;;;;22.27;4.95;;;;;;;39.48;24.88;98181.78;5090225;28;20036;-78
2023/08/03 11:28:41;;;;;;;16.27;4.90;;;;;;;39.42;24.82;98183.06;5106891;28;20027;-78
2023/08/03 11:31:20;;;;;;;14.45;4.65;;;;;;;39.31;24.88;98176.31;5056660;28;20411;-79